sensor_id;sensor_type;location;lat;lon;timestamp;P1;durP1;ratioP1;P2;durP2;ratioP2
76171;SDS011;64929;51.178;4.138;2024-01-11T00:00:50;21.50;;;10.93;;
76171;SDS011;64929;51.178;4.138;2024-01-11T00:03:16;27.37;;;10.37;;
76171;SDS011;64929;51.178;4.138;2024-01-11T00:05:42;25.57;;;12.03;;
76171;SDS011;64929;51.178;4.138;2024-01-11T00:08:08;25.63;;;10.03;;
76171;SDS011;64929;51.178;4.138;2024-01-11T00:10:35;25.37;;;11.50;;
76171;SDS011;64929;51.178;4.138;2024-01-11T00:13:01;26.77;;;11.03;;
76171;SDS011;64929;51.178;4.138;2024-01-11T00:15:27;28.60;;;11.23;;
76171;SDS011;64929;51.178;4.138;2024-01-11T00:17:53;27.87;;;11.63;;
76171;SDS011;64929;51.178;4.138;2024-01-11T00:20:18;26.27;;;10.27;;
76171;SDS011;64929;51.178;4.138;2024-01-11T00:22:44;26.30;;;10.43;;
76171;SDS011;64929;51.178;4.138;2024-01-11T00:25:10;23.30;;;10.43;;
76171;SDS011;64929;51.178;4.138;2024-01-11T00:27:35;23.57;;;11.00;;
76171;SDS011;64929;51.178;4.138;2024-01-11T00:30:01;25.10;;;10.27;;
76171;SDS011;64929;51.178;4.138;2024-01-11T00:32:27;21.90;;;9.93;;
76171;SDS011;64929;51.178;4.138;2024-01-11T00:34:52;21.53;;;10.23;;
76171;SDS011;64929;51.178;4.138;2024-01-11T00:37:18;26.50;;;10.20;;
76171;SDS011;64929;51.178;4.138;2024-01-11T00:39:44;25.13;;;10.03;;
76171;SDS011;64929;51.178;4.138;2024-01-11T00:42:10;26.47;;;10.60;;
76171;SDS011;64929;51.178;4.138;2024-01-11T00:44:35;22.10;;;10.27;;
76171;SDS011;64929;51.178;4.138;2024-01-11T00:47:01;25.07;;;10.90;;
76171;SDS011;64929;51.178;4.138;2024-01-11T00:49:27;28.47;;;11.37;;
76171;SDS011;64929;51.178;4.138;2024-01-11T00:51:53;25.47;;;10.90;;
76171;SDS011;64929;51.178;4.138;2024-01-11T00:54:18;27.20;;;10.80;;
76171;SDS011;64929;51.178;4.138;2024-01-11T00:56:44;22.93;;;10.40;;
76171;SDS011;64929;51.178;4.138;2024-01-11T00:59:09;24.27;;;10.10;;
76171;SDS011;64929;51.178;4.138;2024-01-11T01:01:35;27.17;;;10.53;;
76171;SDS011;64929;51.178;4.138;2024-01-11T01:04:01;25.83;;;10.03;;
76171;SDS011;64929;51.178;4.138;2024-01-11T01:06:27;25.43;;;10.57;;
76171;SDS011;64929;51.178;4.138;2024-01-11T01:08:53;18.70;;;9.93;;
76171;SDS011;64929;51.178;4.138;2024-01-11T01:11:20;24.70;;;10.63;;
76171;SDS011;64929;51.178;4.138;2024-01-11T01:13:46;22.97;;;10.53;;
76171;SDS011;64929;51.178;4.138;2024-01-11T01:16:11;24.17;;;10.43;;
76171;SDS011;64929;51.178;4.138;2024-01-11T01:18:37;22.00;;;10.40;;
76171;SDS011;64929;51.178;4.138;2024-01-11T01:21:03;24.80;;;11.33;;
76171;SDS011;64929;51.178;4.138;2024-01-11T01:23:31;24.70;;;10.40;;
76171;SDS011;64929;51.178;4.138;2024-01-11T01:25:57;22.80;;;10.40;;
76171;SDS011;64929;51.178;4.138;2024-01-11T01:28:23;23.90;;;10.17;;
76171;SDS011;64929;51.178;4.138;2024-01-11T01:30:48;22.30;;;9.83;;
76171;SDS011;64929;51.178;4.138;2024-01-11T01:33:14;24.33;;;10.60;;
76171;SDS011;64929;51.178;4.138;2024-01-11T01:35:40;21.33;;;10.20;;
76171;SDS011;64929;51.178;4.138;2024-01-11T01:38:05;25.03;;;10.17;;
76171;SDS011;64929;51.178;4.138;2024-01-11T01:40:31;21.77;;;10.37;;
76171;SDS011;64929;51.178;4.138;2024-01-11T01:43:00;23.97;;;10.33;;
76171;SDS011;64929;51.178;4.138;2024-01-11T01:45:26;21.40;;;9.87;;
76171;SDS011;64929;51.178;4.138;2024-01-11T01:47:52;20.63;;;9.57;;
76171;SDS011;64929;51.178;4.138;2024-01-11T01:50:19;22.77;;;9.83;;
76171;SDS011;64929;51.178;4.138;2024-01-11T01:52:46;24.03;;;10.23;;
76171;SDS011;64929;51.178;4.138;2024-01-11T01:55:12;25.63;;;10.13;;
76171;SDS011;64929;51.178;4.138;2024-01-11T01:57:40;20.60;;;10.33;;
76171;SDS011;64929;51.178;4.138;2024-01-11T02:00:12;23.57;;;10.77;;
76171;SDS011;64929;51.178;4.138;2024-01-11T02:02:39;26.83;;;10.00;;
76171;SDS011;64929;51.178;4.138;2024-01-11T02:05:08;24.17;;;10.83;;
76171;SDS011;64929;51.178;4.138;2024-01-11T02:07:35;24.47;;;9.93;;
76171;SDS011;64929;51.178;4.138;2024-01-11T02:10:01;25.63;;;11.33;;
76171;SDS011;64929;51.178;4.138;2024-01-11T02:12:28;23.63;;;11.27;;
76171;SDS011;64929;51.178;4.138;2024-01-11T02:14:54;21.83;;;10.67;;
76171;SDS011;64929;51.178;4.138;2024-01-11T02:17:20;23.33;;;9.93;;
76171;SDS011;64929;51.178;4.138;2024-01-11T02:19:46;24.67;;;9.90;;
76171;SDS011;64929;51.178;4.138;2024-01-11T02:22:15;23.60;;;10.00;;
76171;SDS011;64929;51.178;4.138;2024-01-11T02:24:52;22.83;;;10.57;;
76171;SDS011;64929;51.178;4.138;2024-01-11T02:27:18;21.57;;;9.90;;
76171;SDS011;64929;51.178;4.138;2024-01-11T02:29:44;23.23;;;10.77;;
76171;SDS011;64929;51.178;4.138;2024-01-11T02:32:10;23.57;;;11.17;;
76171;SDS011;64929;51.178;4.138;2024-01-11T02:34:36;24.73;;;11.10;;
76171;SDS011;64929;51.178;4.138;2024-01-11T02:37:01;24.70;;;10.70;;
76171;SDS011;64929;51.178;4.138;2024-01-11T02:39:27;27.27;;;11.00;;
76171;SDS011;64929;51.178;4.138;2024-01-11T02:41:56;22.50;;;10.10;;
76171;SDS011;64929;51.178;4.138;2024-01-11T02:44:23;22.17;;;10.63;;
76171;SDS011;64929;51.178;4.138;2024-01-11T02:46:49;26.30;;;10.07;;
76171;SDS011;64929;51.178;4.138;2024-01-11T02:49:14;26.77;;;11.10;;
76171;SDS011;64929;51.178;4.138;2024-01-11T02:51:40;28.20;;;11.37;;
76171;SDS011;64929;51.178;4.138;2024-01-11T02:54:06;22.60;;;10.50;;
76171;SDS011;64929;51.178;4.138;2024-01-11T02:56:31;23.07;;;9.53;;
76171;SDS011;64929;51.178;4.138;2024-01-11T02:58:57;25.63;;;10.87;;
76171;SDS011;64929;51.178;4.138;2024-01-11T03:01:23;26.50;;;11.53;;
76171;SDS011;64929;51.178;4.138;2024-01-11T03:03:49;24.17;;;10.80;;
76171;SDS011;64929;51.178;4.138;2024-01-11T03:06:18;27.53;;;10.07;;
76171;SDS011;64929;51.178;4.138;2024-01-11T03:08:47;25.33;;;10.63;;
76171;SDS011;64929;51.178;4.138;2024-01-11T03:11:15;25.17;;;11.27;;
76171;SDS011;64929;51.178;4.138;2024-01-11T03:13:43;28.40;;;10.60;;
76171;SDS011;64929;51.178;4.138;2024-01-11T03:16:09;26.50;;;10.83;;
76171;SDS011;64929;51.178;4.138;2024-01-11T03:18:35;28.40;;;10.80;;
76171;SDS011;64929;51.178;4.138;2024-01-11T03:21:00;28.07;;;11.73;;
76171;SDS011;64929;51.178;4.138;2024-01-11T03:23:26;26.50;;;11.10;;
76171;SDS011;64929;51.178;4.138;2024-01-11T03:25:52;27.73;;;11.37;;
76171;SDS011;64929;51.178;4.138;2024-01-11T03:28:17;25.63;;;10.57;;
76171;SDS011;64929;51.178;4.138;2024-01-11T03:30:43;27.57;;;11.03;;
76171;SDS011;64929;51.178;4.138;2024-01-11T03:33:09;27.03;;;11.27;;
76171;SDS011;64929;51.178;4.138;2024-01-11T03:35:34;23.70;;;10.57;;
76171;SDS011;64929;51.178;4.138;2024-01-11T03:38:00;25.43;;;11.27;;
76171;SDS011;64929;51.178;4.138;2024-01-11T03:40:26;25.83;;;10.87;;
76171;SDS011;64929;51.178;4.138;2024-01-11T03:42:51;25.63;;;11.03;;
76171;SDS011;64929;51.178;4.138;2024-01-11T03:45:17;23.50;;;10.73;;
76171;SDS011;64929;51.178;4.138;2024-01-11T03:47:44;24.00;;;10.60;;
76171;SDS011;64929;51.178;4.138;2024-01-11T03:50:10;26.47;;;11.50;;
76171;SDS011;64929;51.178;4.138;2024-01-11T03:52:36;29.93;;;11.43;;
76171;SDS011;64929;51.178;4.138;2024-01-11T03:55:01;22.60;;;10.47;;
76171;SDS011;64929;51.178;4.138;2024-01-11T03:57:28;22.00;;;11.07;;
76171;SDS011;64929;51.178;4.138;2024-01-11T03:59:54;24.40;;;10.40;;
76171;SDS011;64929;51.178;4.138;2024-01-11T04:02:19;26.50;;;10.97;;
76171;SDS011;64929;51.178;4.138;2024-01-11T04:04:45;25.97;;;10.57;;
76171;SDS011;64929;51.178;4.138;2024-01-11T04:07:11;25.20;;;11.10;;
76171;SDS011;64929;51.178;4.138;2024-01-11T04:09:37;26.93;;;10.33;;
76171;SDS011;64929;51.178;4.138;2024-01-11T04:12:03;26.40;;;10.60;;
76171;SDS011;64929;51.178;4.138;2024-01-11T04:14:30;22.23;;;10.53;;
76171;SDS011;64929;51.178;4.138;2024-01-11T04:16:56;20.13;;;10.23;;
76171;SDS011;64929;51.178;4.138;2024-01-11T04:19:21;24.73;;;11.27;;
76171;SDS011;64929;51.178;4.138;2024-01-11T04:21:48;25.50;;;10.43;;
76171;SDS011;64929;51.178;4.138;2024-01-11T04:24:13;24.53;;;10.40;;
76171;SDS011;64929;51.178;4.138;2024-01-11T04:26:39;26.93;;;11.33;;
76171;SDS011;64929;51.178;4.138;2024-01-11T04:29:05;30.43;;;11.80;;
76171;SDS011;64929;51.178;4.138;2024-01-11T04:31:31;24.90;;;11.57;;
76171;SDS011;64929;51.178;4.138;2024-01-11T04:33:56;24.40;;;10.60;;
76171;SDS011;64929;51.178;4.138;2024-01-11T04:36:22;24.07;;;11.17;;
76171;SDS011;64929;51.178;4.138;2024-01-11T04:38:48;29.50;;;11.10;;
76171;SDS011;64929;51.178;4.138;2024-01-11T04:41:14;20.27;;;9.97;;
76171;SDS011;64929;51.178;4.138;2024-01-11T04:43:44;23.13;;;10.37;;
76171;SDS011;64929;51.178;4.138;2024-01-11T04:46:13;27.15;;;11.13;;
76171;SDS011;64929;51.178;4.138;2024-01-11T04:48:43;24.87;;;11.23;;
76171;SDS011;64929;51.178;4.138;2024-01-11T04:51:10;23.37;;;10.33;;
76171;SDS011;64929;51.178;4.138;2024-01-11T04:53:36;20.80;;;10.33;;
76171;SDS011;64929;51.178;4.138;2024-01-11T04:56:03;27.10;;;11.50;;
76171;SDS011;64929;51.178;4.138;2024-01-11T04:58:29;21.93;;;10.00;;
76171;SDS011;64929;51.178;4.138;2024-01-11T05:00:55;22.97;;;10.63;;
76171;SDS011;64929;51.178;4.138;2024-01-11T05:03:20;24.23;;;10.30;;
76171;SDS011;64929;51.178;4.138;2024-01-11T05:05:46;26.43;;;10.67;;
76171;SDS011;64929;51.178;4.138;2024-01-11T05:08:12;30.43;;;11.33;;
76171;SDS011;64929;51.178;4.138;2024-01-11T05:10:37;22.87;;;11.20;;
76171;SDS011;64929;51.178;4.138;2024-01-11T05:13:03;25.27;;;10.67;;
76171;SDS011;64929;51.178;4.138;2024-01-11T05:15:29;25.60;;;10.57;;
76171;SDS011;64929;51.178;4.138;2024-01-11T05:17:55;23.30;;;9.77;;
76171;SDS011;64929;51.178;4.138;2024-01-11T05:20:22;21.97;;;10.60;;
76171;SDS011;64929;51.178;4.138;2024-01-11T05:22:47;25.70;;;10.90;;
76171;SDS011;64929;51.178;4.138;2024-01-11T05:25:13;25.40;;;9.97;;
76171;SDS011;64929;51.178;4.138;2024-01-11T05:27:39;22.00;;;10.77;;
76171;SDS011;64929;51.178;4.138;2024-01-11T05:30:05;26.87;;;11.57;;
76171;SDS011;64929;51.178;4.138;2024-01-11T05:32:31;24.73;;;10.80;;
76171;SDS011;64929;51.178;4.138;2024-01-11T05:34:57;28.03;;;10.73;;
76171;SDS011;64929;51.178;4.138;2024-01-11T05:37:23;25.07;;;10.50;;
76171;SDS011;64929;51.178;4.138;2024-01-11T05:39:49;25.10;;;10.57;;
76171;SDS011;64929;51.178;4.138;2024-01-11T05:42:15;27.33;;;10.83;;
76171;SDS011;64929;51.178;4.138;2024-01-11T05:44:40;28.07;;;10.50;;
76171;SDS011;64929;51.178;4.138;2024-01-11T05:47:06;25.70;;;11.33;;
76171;SDS011;64929;51.178;4.138;2024-01-11T05:49:32;26.90;;;11.70;;
76171;SDS011;64929;51.178;4.138;2024-01-11T05:51:57;23.73;;;10.60;;
76171;SDS011;64929;51.178;4.138;2024-01-11T05:54:23;24.80;;;11.57;;
76171;SDS011;64929;51.178;4.138;2024-01-11T05:56:50;23.87;;;12.43;;
76171;SDS011;64929;51.178;4.138;2024-01-11T05:59:21;25.63;;;11.63;;
76171;SDS011;64929;51.178;4.138;2024-01-11T06:01:47;26.07;;;11.73;;
76171;SDS011;64929;51.178;4.138;2024-01-11T06:04:12;25.97;;;11.60;;
76171;SDS011;64929;51.178;4.138;2024-01-11T06:06:39;30.67;;;11.67;;
76171;SDS011;64929;51.178;4.138;2024-01-11T06:09:05;21.43;;;11.17;;
76171;SDS011;64929;51.178;4.138;2024-01-11T06:11:31;28.40;;;10.97;;
76171;SDS011;64929;51.178;4.138;2024-01-11T06:13:57;28.70;;;11.93;;
76171;SDS011;64929;51.178;4.138;2024-01-11T06:16:22;25.17;;;11.17;;
76171;SDS011;64929;51.178;4.138;2024-01-11T06:18:49;25.10;;;11.37;;
76171;SDS011;64929;51.178;4.138;2024-01-11T06:21:15;32.03;;;11.67;;
76171;SDS011;64929;51.178;4.138;2024-01-11T06:23:43;27.97;;;11.80;;
76171;SDS011;64929;51.178;4.138;2024-01-11T06:26:09;23.00;;;11.03;;
76171;SDS011;64929;51.178;4.138;2024-01-11T06:28:35;26.30;;;11.13;;
76171;SDS011;64929;51.178;4.138;2024-01-11T06:31:00;28.43;;;11.90;;
76171;SDS011;64929;51.178;4.138;2024-01-11T06:33:26;30.40;;;11.57;;
76171;SDS011;64929;51.178;4.138;2024-01-11T06:35:53;26.60;;;11.40;;
76171;SDS011;64929;51.178;4.138;2024-01-11T06:38:19;28.67;;;12.27;;
76171;SDS011;64929;51.178;4.138;2024-01-11T06:40:44;28.20;;;12.13;;
76171;SDS011;64929;51.178;4.138;2024-01-11T06:43:10;29.50;;;12.40;;
76171;SDS011;64929;51.178;4.138;2024-01-11T06:45:36;28.27;;;12.47;;
76171;SDS011;64929;51.178;4.138;2024-01-11T06:48:02;30.97;;;12.97;;
76171;SDS011;64929;51.178;4.138;2024-01-11T06:50:28;31.60;;;13.30;;
76171;SDS011;64929;51.178;4.138;2024-01-11T06:52:54;34.83;;;12.00;;
76171;SDS011;64929;51.178;4.138;2024-01-11T06:55:19;27.20;;;11.47;;
76171;SDS011;64929;51.178;4.138;2024-01-11T06:57:48;29.17;;;11.70;;
76171;SDS011;64929;51.178;4.138;2024-01-11T07:00:13;33.23;;;12.30;;
76171;SDS011;64929;51.178;4.138;2024-01-11T07:02:39;27.83;;;12.47;;
76171;SDS011;64929;51.178;4.138;2024-01-11T07:05:05;26.00;;;11.47;;
76171;SDS011;64929;51.178;4.138;2024-01-11T07:07:31;32.97;;;12.27;;
76171;SDS011;64929;51.178;4.138;2024-01-11T07:09:58;27.80;;;12.00;;
76171;SDS011;64929;51.178;4.138;2024-01-11T07:12:24;29.30;;;13.27;;
76171;SDS011;64929;51.178;4.138;2024-01-11T07:14:50;37.63;;;12.90;;
76171;SDS011;64929;51.178;4.138;2024-01-11T07:17:17;26.90;;;12.40;;
76171;SDS011;64929;51.178;4.138;2024-01-11T07:19:42;30.10;;;12.83;;
76171;SDS011;64929;51.178;4.138;2024-01-11T07:22:11;25.53;;;12.53;;
76171;SDS011;64929;51.178;4.138;2024-01-11T07:24:37;36.87;;;12.27;;
76171;SDS011;64929;51.178;4.138;2024-01-11T07:27:06;22.83;;;11.60;;
76171;SDS011;64929;51.178;4.138;2024-01-11T07:29:35;22.40;;;11.10;;
76171;SDS011;64929;51.178;4.138;2024-01-11T07:32:01;28.67;;;11.23;;
76171;SDS011;64929;51.178;4.138;2024-01-11T07:34:28;25.40;;;11.37;;
76171;SDS011;64929;51.178;4.138;2024-01-11T07:36:54;29.27;;;12.43;;
76171;SDS011;64929;51.178;4.138;2024-01-11T07:39:21;25.60;;;10.27;;
76171;SDS011;64929;51.178;4.138;2024-01-11T07:41:50;31.73;;;10.70;;
76171;SDS011;64929;51.178;4.138;2024-01-11T07:44:16;27.77;;;11.60;;
76171;SDS011;64929;51.178;4.138;2024-01-11T07:46:42;25.30;;;10.63;;
76171;SDS011;64929;51.178;4.138;2024-01-11T07:49:08;35.87;;;12.03;;
76171;SDS011;64929;51.178;4.138;2024-01-11T07:51:35;26.17;;;10.20;;
76171;SDS011;64929;51.178;4.138;2024-01-11T07:54:01;31.23;;;11.10;;
76171;SDS011;64929;51.178;4.138;2024-01-11T07:56:27;30.73;;;11.10;;
76171;SDS011;64929;51.178;4.138;2024-01-11T07:58:53;27.53;;;11.23;;
76171;SDS011;64929;51.178;4.138;2024-01-11T08:01:19;27.40;;;11.70;;
76171;SDS011;64929;51.178;4.138;2024-01-11T08:03:45;26.17;;;10.90;;
76171;SDS011;64929;51.178;4.138;2024-01-11T08:06:11;26.10;;;11.10;;
76171;SDS011;64929;51.178;4.138;2024-01-11T08:08:37;28.07;;;11.03;;
76171;SDS011;64929;51.178;4.138;2024-01-11T08:11:09;33.17;;;11.40;;
76171;SDS011;64929;51.178;4.138;2024-01-11T08:13:37;29.23;;;12.30;;
76171;SDS011;64929;51.178;4.138;2024-01-11T08:16:03;27.97;;;12.53;;
76171;SDS011;64929;51.178;4.138;2024-01-11T08:18:32;32.73;;;13.90;;
76171;SDS011;64929;51.178;4.138;2024-01-11T08:20:58;39.17;;;13.40;;
76171;SDS011;64929;51.178;4.138;2024-01-11T08:23:24;41.63;;;13.70;;
76171;SDS011;64929;51.178;4.138;2024-01-11T08:25:50;28.90;;;13.20;;
76171;SDS011;64929;51.178;4.138;2024-01-11T08:28:17;27.47;;;13.00;;
76171;SDS011;64929;51.178;4.138;2024-01-11T08:30:43;31.53;;;13.17;;
76171;SDS011;64929;51.178;4.138;2024-01-11T08:33:09;33.47;;;14.57;;
76171;SDS011;64929;51.178;4.138;2024-01-11T08:35:35;35.77;;;13.53;;
76171;SDS011;64929;51.178;4.138;2024-01-11T08:38:01;27.77;;;12.37;;
76171;SDS011;64929;51.178;4.138;2024-01-11T08:40:28;30.67;;;14.23;;
76171;SDS011;64929;51.178;4.138;2024-01-11T08:42:53;29.53;;;12.80;;
76171;SDS011;64929;51.178;4.138;2024-01-11T08:45:19;34.00;;;13.67;;
76171;SDS011;64929;51.178;4.138;2024-01-11T08:47:47;35.23;;;13.33;;
76171;SDS011;64929;51.178;4.138;2024-01-11T08:50:13;29.80;;;13.20;;
76171;SDS011;64929;51.178;4.138;2024-01-11T08:52:39;33.47;;;13.30;;
76171;SDS011;64929;51.178;4.138;2024-01-11T08:55:06;31.97;;;13.97;;
76171;SDS011;64929;51.178;4.138;2024-01-11T08:57:32;28.90;;;12.50;;
76171;SDS011;64929;51.178;4.138;2024-01-11T09:00:00;32.17;;;13.40;;
76171;SDS011;64929;51.178;4.138;2024-01-11T09:02:31;30.13;;;12.10;;
76171;SDS011;64929;51.178;4.138;2024-01-11T09:04:57;33.40;;;12.23;;
76171;SDS011;64929;51.178;4.138;2024-01-11T09:07:22;28.30;;;11.93;;
76171;SDS011;64929;51.178;4.138;2024-01-11T09:09:48;27.70;;;10.80;;
76171;SDS011;64929;51.178;4.138;2024-01-11T09:12:14;37.70;;;11.83;;
76171;SDS011;64929;51.178;4.138;2024-01-11T09:14:39;28.53;;;11.63;;
76171;SDS011;64929;51.178;4.138;2024-01-11T09:17:05;26.60;;;11.10;;
76171;SDS011;64929;51.178;4.138;2024-01-11T09:19:32;25.87;;;12.03;;
76171;SDS011;64929;51.178;4.138;2024-01-11T09:21:59;22.60;;;11.53;;
76171;SDS011;64929;51.178;4.138;2024-01-11T09:24:24;25.87;;;11.47;;
76171;SDS011;64929;51.178;4.138;2024-01-11T09:26:50;26.00;;;11.67;;
76171;SDS011;64929;51.178;4.138;2024-01-11T09:29:16;35.27;;;11.50;;
76171;SDS011;64929;51.178;4.138;2024-01-11T09:31:42;25.37;;;11.80;;
76171;SDS011;64929;51.178;4.138;2024-01-11T09:34:08;33.30;;;13.33;;
76171;SDS011;64929;51.178;4.138;2024-01-11T09:36:33;29.47;;;13.20;;
76171;SDS011;64929;51.178;4.138;2024-01-11T09:38:59;34.07;;;12.57;;
76171;SDS011;64929;51.178;4.138;2024-01-11T09:41:25;26.47;;;11.53;;
76171;SDS011;64929;51.178;4.138;2024-01-11T09:43:52;27.13;;;11.33;;
76171;SDS011;64929;51.178;4.138;2024-01-11T09:46:19;29.23;;;13.10;;
76171;SDS011;64929;51.178;4.138;2024-01-11T09:48:46;26.13;;;11.53;;
76171;SDS011;64929;51.178;4.138;2024-01-11T09:51:14;26.03;;;11.43;;
76171;SDS011;64929;51.178;4.138;2024-01-11T09:53:39;23.33;;;11.90;;
76171;SDS011;64929;51.178;4.138;2024-01-11T09:56:08;23.77;;;11.67;;
76171;SDS011;64929;51.178;4.138;2024-01-11T09:58:35;25.43;;;12.03;;
76171;SDS011;64929;51.178;4.138;2024-01-11T10:01:05;26.57;;;11.60;;
76171;SDS011;64929;51.178;4.138;2024-01-11T10:03:34;24.03;;;11.33;;
76171;SDS011;64929;51.178;4.138;2024-01-11T10:06:00;23.83;;;11.60;;
76171;SDS011;64929;51.178;4.138;2024-01-11T10:08:27;25.50;;;11.40;;
76171;SDS011;64929;51.178;4.138;2024-01-11T10:10:55;26.83;;;11.17;;
76171;SDS011;64929;51.178;4.138;2024-01-11T10:13:27;22.60;;;11.87;;
76171;SDS011;64929;51.178;4.138;2024-01-11T10:16:06;25.77;;;11.53;;
76171;SDS011;64929;51.178;4.138;2024-01-11T10:18:38;29.10;;;12.87;;
76171;SDS011;64929;51.178;4.138;2024-01-11T10:21:04;26.37;;;12.00;;
76171;SDS011;64929;51.178;4.138;2024-01-11T10:23:33;26.53;;;12.67;;
76171;SDS011;64929;51.178;4.138;2024-01-11T10:25:59;23.70;;;12.63;;
76171;SDS011;64929;51.178;4.138;2024-01-11T10:28:25;30.73;;;14.07;;
76171;SDS011;64929;51.178;4.138;2024-01-11T10:30:52;30.70;;;13.53;;
76171;SDS011;64929;51.178;4.138;2024-01-11T10:33:23;28.33;;;13.67;;
76171;SDS011;64929;51.178;4.138;2024-01-11T10:35:49;31.77;;;12.77;;
76171;SDS011;64929;51.178;4.138;2024-01-11T10:38:15;27.97;;;13.50;;
76171;SDS011;64929;51.178;4.138;2024-01-11T10:40:41;32.77;;;13.30;;
76171;SDS011;64929;51.178;4.138;2024-01-11T10:43:10;28.77;;;12.87;;
76171;SDS011;64929;51.178;4.138;2024-01-11T10:45:37;28.85;;;13.20;;
76171;SDS011;64929;51.178;4.138;2024-01-11T10:48:13;27.63;;;13.63;;
76171;SDS011;64929;51.178;4.138;2024-01-11T10:50:43;27.00;;;13.20;;
76171;SDS011;64929;51.178;4.138;2024-01-11T10:53:20;26.20;;;12.43;;
76171;SDS011;64929;51.178;4.138;2024-01-11T10:55:53;28.57;;;13.07;;
76171;SDS011;64929;51.178;4.138;2024-01-11T10:58:21;28.63;;;13.13;;
76171;SDS011;64929;51.178;4.138;2024-01-11T11:00:48;28.77;;;12.53;;
76171;SDS011;64929;51.178;4.138;2024-01-11T11:03:16;27.27;;;12.83;;
76171;SDS011;64929;51.178;4.138;2024-01-11T11:05:44;29.60;;;14.03;;
76171;SDS011;64929;51.178;4.138;2024-01-11T11:08:13;28.80;;;13.10;;
76171;SDS011;64929;51.178;4.138;2024-01-11T11:10:40;29.13;;;13.07;;
76171;SDS011;64929;51.178;4.138;2024-01-11T11:13:06;30.80;;;14.33;;
76171;SDS011;64929;51.178;4.138;2024-01-11T11:15:35;27.53;;;13.63;;
76171;SDS011;64929;51.178;4.138;2024-01-11T11:18:02;26.70;;;13.93;;
76171;SDS011;64929;51.178;4.138;2024-01-11T11:20:31;36.53;;;14.50;;
76171;SDS011;64929;51.178;4.138;2024-01-11T11:23:04;31.00;;;14.70;;
76171;SDS011;64929;51.178;4.138;2024-01-11T11:25:40;29.37;;;14.30;;
76171;SDS011;64929;51.178;4.138;2024-01-11T11:28:06;34.23;;;14.47;;
76171;SDS011;64929;51.178;4.138;2024-01-11T11:30:32;35.53;;;14.17;;
76171;SDS011;64929;51.178;4.138;2024-01-11T11:33:09;33.50;;;14.02;;
76171;SDS011;64929;51.178;4.138;2024-01-11T11:35:43;24.23;;;12.37;;
76171;SDS011;64929;51.178;4.138;2024-01-11T11:38:20;28.47;;;13.27;;
76171;SDS011;64929;51.178;4.138;2024-01-11T11:40:51;28.03;;;13.50;;
76171;SDS011;64929;51.178;4.138;2024-01-11T11:43:18;29.30;;;13.43;;
76171;SDS011;64929;51.178;4.138;2024-01-11T11:45:46;25.90;;;13.17;;
76171;SDS011;64929;51.178;4.138;2024-01-11T11:48:55;30.67;;;13.53;;
76171;SDS011;64929;51.178;4.138;2024-01-11T11:51:09;29.43;;;12.20;;
76171;SDS011;64929;51.178;4.138;2024-01-11T11:53:35;30.05;;;14.07;;
76171;SDS011;64929;51.178;4.138;2024-01-11T11:56:02;24.57;;;12.03;;
76171;SDS011;64929;51.178;4.138;2024-01-11T11:58:29;29.13;;;13.70;;
76171;SDS011;64929;51.178;4.138;2024-01-11T12:00:55;26.73;;;13.33;;
76171;SDS011;64929;51.178;4.138;2024-01-11T12:03:30;27.35;;;12.95;;
76171;SDS011;64929;51.178;4.138;2024-01-11T12:05:57;23.00;;;12.75;;
76171;SDS011;64929;51.178;4.138;2024-01-11T12:08:23;29.13;;;14.35;;
76171;SDS011;64929;51.178;4.138;2024-01-11T12:10:49;26.13;;;12.77;;
76171;SDS011;64929;51.178;4.138;2024-01-11T12:13:17;27.58;;;13.38;;
76171;SDS011;64929;51.178;4.138;2024-01-11T12:15:43;28.42;;;14.05;;
76171;SDS011;64929;51.178;4.138;2024-01-11T12:18:09;23.58;;;12.90;;
76171;SDS011;64929;51.178;4.138;2024-01-11T12:20:35;26.67;;;13.95;;
76171;SDS011;64929;51.178;4.138;2024-01-11T12:23:01;29.90;;;14.63;;
76171;SDS011;64929;51.178;4.138;2024-01-11T12:25:28;30.33;;;14.73;;
76171;SDS011;64929;51.178;4.138;2024-01-11T12:27:54;28.35;;;14.38;;
76171;SDS011;64929;51.178;4.138;2024-01-11T12:30:26;27.35;;;14.10;;
76171;SDS011;64929;51.178;4.138;2024-01-11T12:32:55;28.48;;;13.57;;
76171;SDS011;64929;51.178;4.138;2024-01-11T12:35:21;32.28;;;14.18;;
76171;SDS011;64929;51.178;4.138;2024-01-11T12:37:54;25.88;;;13.25;;
76171;SDS011;64929;51.178;4.138;2024-01-11T12:40:24;29.77;;;14.52;;
76171;SDS011;64929;51.178;4.138;2024-01-11T12:42:49;26.63;;;13.43;;
76171;SDS011;64929;51.178;4.138;2024-01-11T12:45:21;24.13;;;13.20;;
76171;SDS011;64929;51.178;4.138;2024-01-11T12:47:48;26.25;;;13.38;;
76171;SDS011;64929;51.178;4.138;2024-01-11T12:50:14;23.35;;;13.52;;
76171;SDS011;64929;51.178;4.138;2024-01-11T12:52:39;23.38;;;13.70;;
76171;SDS011;64929;51.178;4.138;2024-01-11T12:55:28;26.23;;;13.98;;
76171;SDS011;64929;51.178;4.138;2024-01-11T12:58:02;26.35;;;13.88;;
76171;SDS011;64929;51.178;4.138;2024-01-11T13:00:31;22.40;;;13.18;;
76171;SDS011;64929;51.178;4.138;2024-01-11T13:02:57;25.98;;;13.50;;
76171;SDS011;64929;51.178;4.138;2024-01-11T13:05:23;26.63;;;13.27;;
76171;SDS011;64929;51.178;4.138;2024-01-11T13:07:50;23.77;;;12.40;;
76171;SDS011;64929;51.178;4.138;2024-01-11T13:10:16;27.83;;;13.23;;
76171;SDS011;64929;51.178;4.138;2024-01-11T13:12:42;24.85;;;12.98;;
76171;SDS011;64929;51.178;4.138;2024-01-11T13:15:08;22.13;;;12.40;;
76171;SDS011;64929;51.178;4.138;2024-01-11T13:17:33;24.98;;;12.80;;
76171;SDS011;64929;51.178;4.138;2024-01-11T13:19:59;27.48;;;14.13;;
76171;SDS011;64929;51.178;4.138;2024-01-11T13:22:26;27.83;;;12.80;;
76171;SDS011;64929;51.178;4.138;2024-01-11T13:24:52;27.75;;;13.88;;
76171;SDS011;64929;51.178;4.138;2024-01-11T13:27:18;28.55;;;12.88;;
76171;SDS011;64929;51.178;4.138;2024-01-11T13:29:44;25.48;;;12.40;;
76171;SDS011;64929;51.178;4.138;2024-01-11T13:32:09;28.98;;;13.48;;
76171;SDS011;64929;51.178;4.138;2024-01-11T13:34:36;21.77;;;11.48;;
76171;SDS011;64929;51.178;4.138;2024-01-11T13:37:02;26.45;;;12.27;;
76171;SDS011;64929;51.178;4.138;2024-01-11T13:39:28;22.35;;;11.98;;
76171;SDS011;64929;51.178;4.138;2024-01-11T13:41:53;22.85;;;11.77;;
76171;SDS011;64929;51.178;4.138;2024-01-11T13:44:19;23.33;;;12.57;;
76171;SDS011;64929;51.178;4.138;2024-01-11T13:46:45;23.23;;;11.67;;
76171;SDS011;64929;51.178;4.138;2024-01-11T13:49:10;26.20;;;13.13;;
76171;SDS011;64929;51.178;4.138;2024-01-11T13:51:36;27.63;;;12.93;;
76171;SDS011;64929;51.178;4.138;2024-01-11T13:54:03;28.07;;;12.83;;
76171;SDS011;64929;51.178;4.138;2024-01-11T13:56:28;24.50;;;12.17;;
76171;SDS011;64929;51.178;4.138;2024-01-11T13:58:55;23.63;;;11.97;;
76171;SDS011;64929;51.178;4.138;2024-01-11T14:01:21;25.03;;;12.97;;
76171;SDS011;64929;51.178;4.138;2024-01-11T14:03:47;23.43;;;11.20;;
76171;SDS011;64929;51.178;4.138;2024-01-11T14:06:12;23.07;;;11.63;;
76171;SDS011;64929;51.178;4.138;2024-01-11T14:08:38;22.17;;;10.47;;
76171;SDS011;64929;51.178;4.138;2024-01-11T14:11:04;21.80;;;10.43;;
76171;SDS011;64929;51.178;4.138;2024-01-11T14:13:30;23.27;;;11.20;;
76171;SDS011;64929;51.178;4.138;2024-01-11T14:15:56;18.93;;;10.57;;
76171;SDS011;64929;51.178;4.138;2024-01-11T14:18:22;21.10;;;9.87;;